logo dgac
Domingo 09 de Diciembre del 2018

Metar

Buscar por aerodromo o helipuerto
Ingrese nombre de aeródromo, localidad o designador OACI:


METAR del 09-12-2018 a las 23:00 UTC
METAR SCVM 092300Z 01008KT CAVOK 22/13 Q1014
Viento: dirección 010 grados, velocidad 8 nudos
Visibilidad: 10 km o más,
    sin nubes bajo los 5.000 pies o bajo del MSA (Mínimo de Seguridad del Aeródromo),
    sin cumulonimbus, y sin fenómenos de tiempo significativo en el aeródromo o alrededores
Temperatura: 22 °C
Rocío: 13 °C
Humedad_relativa: 57%
Presión: 1014 hPa
METAR del 09-12-2018 a las 23:00 UTC
METAR SCEL 092300Z 22014KT CAVOK 26/07 Q1013 NOSIG
Viento: dirección 220 grados, velocidad 14 nudos
Visibilidad: 10 km o más,
    sin nubes bajo los 5.000 pies o bajo del MSA (Mínimo de Seguridad del Aeródromo),
    sin cumulonimbus, y sin fenómenos de tiempo significativo en el aeródromo o alrededores
Temperatura: 26 °C
Rocío: 7 °C
Humedad_relativa: 30%
Presión: 1013 hPa
No se esperan cambios significativos en las próximas 2 horas
METAR del 09-12-2018 a las 23:00 UTC
METAR SCFA 092300Z 20013KT 9999 BKN009 17/13 Q1011 NOSIG
Viento: dirección 200 grados, velocidad 13 nudos
Visibilidad: 10 km o más
Nubes: Nublado a 900 pies sobre el nivel del aeródromo
Temperatura: 17 °C
Rocío: 13 °C
Humedad_relativa: 77%
Presión: 1011 hPa
No se esperan cambios significativos en las próximas 2 horas
METAR del 09-12-2018 a las 23:00 UTC
METAR SCRD 092300Z 20012KT CAVOK 19/09 Q1015
Viento: dirección 200 grados, velocidad 12 nudos
Visibilidad: 10 km o más,
    sin nubes bajo los 5.000 pies o bajo del MSA (Mínimo de Seguridad del Aeródromo),
    sin cumulonimbus, y sin fenómenos de tiempo significativo en el aeródromo o alrededores
Temperatura: 19 °C
Rocío: 9 °C
Humedad_relativa: 52%
Presión: 1015 hPa
METAR del 09-12-2018 a las 23:00 UTC
METAR SCCY 092300Z 26003KT 9999 OVC040 16/08 Q1007
Viento: dirección 260 grados, velocidad 3 nudos
Visibilidad: 10 km o más
Nubes: Cubierto a 4000 pies sobre el nivel del aeródromo
Temperatura: 16 °C
Rocío: 8 °C
Humedad_relativa: 59%
Presión: 1007 hPa
METAR del 09-12-2018 a las 23:00 UTC
METAR SCDA 092300Z 20012KT 9999 FEW025 20/14 Q1012
Viento: dirección 200 grados, velocidad 12 nudos
Visibilidad: 10 km o más
Nubes: Escasa nubosidad a 2500 pies sobre el nivel del aeródromo
Temperatura: 20 °C
Rocío: 14 °C
Humedad_relativa: 68%
Presión: 1012 hPa
METAR del 09-12-2018 a las 23:00 UTC
METAR SCRM 092300Z 33014KT 8000 -SN OVC015 01/M01 Q0978
Viento: dirección 330 grados, velocidad 14 nudos
Visibilidad: 8000 metros
Débil Nieve
Nubes: Cubierto a 1500 pies sobre el nivel del aeródromo
Temperatura: 1 °C
Rocío: -1 °C
Humedad_relativa: 86%
Presión: 978 hPa
METAR del 09-12-2018 a las 23:00 UTC
METAR SCCF 092300Z 25021KT CAVOK 25/M20 Q1023
Viento: dirección 250 grados, velocidad 21 nudos
Visibilidad: 10 km o más,
    sin nubes bajo los 5.000 pies o bajo del MSA (Mínimo de Seguridad del Aeródromo),
    sin cumulonimbus, y sin fenómenos de tiempo significativo en el aeródromo o alrededores
Temperatura: 25 °C
Rocío: -20 °C
Humedad_relativa: 4%
Presión: 1023 hPa
METAR del 09-12-2018 a las 23:00 UTC
METAR SCPQ 092300Z 34018KT 3000 -SHRA BR SCT005 BKN010 OVC025 12/12 Q1012
Viento: dirección 340 grados, velocidad 18 nudos
Visibilidad: 3000 metros
Débil ChubascosLluvia
Neblina
Nubes: Nubosidad parcial a 500 pies sobre el nivel del aeródromo
Nubes: Nublado a 1000 pies sobre el nivel del aeródromo
Nubes: Cubierto a 2500 pies sobre el nivel del aeródromo
Temperatura: 12 °C
Rocío: 12 °C
Humedad_relativa: 100%
Presión: 1012 hPa
METAR del 09-12-2018 a las 23:00 UTC
METAR SCCH 092300Z 25011KT CAVOK 22/12 Q1015
Viento: dirección 250 grados, velocidad 11 nudos
Visibilidad: 10 km o más,
    sin nubes bajo los 5.000 pies o bajo del MSA (Mínimo de Seguridad del Aeródromo),
    sin cumulonimbus, y sin fenómenos de tiempo significativo en el aeródromo o alrededores
Temperatura: 22 °C
Rocío: 12 °C
Humedad_relativa: 53%
Presión: 1015 hPa